Time;durP1;ratioP1;P1;durP2;ratioP2;P2;SDS_P1;SDS_P2;PMS_P1;PMS_P2;Temp;Humidity;BMP_temperature;BMP_pressure;BME280_temperature;BME280_humidity;BME280_pressure;Samples;Min_cycle;Max_cycle;Signal;HPM_P1;HPM_P2
2022/08/28 00:00:42;;;;;;;;;;;;;;;27.14;50.67;99166.88;4482086;32;35065;-62
2022/08/28 00:03:10;;;;;;;;;;;;;;;27.13;50.80;99159.66;4472541;32;34010;-62
2022/08/28 00:05:38;;;;;;;;;;;;;;;26.29;52.98;99156.84;4476229;32;33491;-62
2022/08/28 00:08:06;;;;;;;;;;;;;;;26.93;51.67;99163.56;4480293;32;34045;-63
2022/08/28 00:10:34;;;;;;;;;;;;;;;26.91;51.83;99162.97;4481788;32;34431;-63
2022/08/28 00:13:01;;;;;;;;;;;;;;;26.59;52.90;99156.06;4483353;32;34024;-62
2022/08/28 00:15:30;;;;;;;;;;;;;;;26.83;52.29;99133.09;4480271;32;31888;-62
2022/08/28 00:17:58;;;;;;;;;;;;;;;26.14;54.20;99140.81;4474642;32;34288;-62
2022/08/28 00:20:26;;;;;;;;;;;;;;;26.52;52.42;99147.94;4474875;32;33860;-62
2022/08/28 00:22:54;;;;;;;;;;;;;;;26.57;52.20;99164.53;4481472;32;32774;-62
2022/08/28 00:25:23;;;;;;;;;;;;;;;26.73;51.66;99176.75;4481754;32;34027;-62
2022/08/28 00:27:51;;;;;;;;;;;;;;;26.77;51.49;99179.88;4477175;32;35184;-62
2022/08/28 00:30:24;;;;;;;;;;;;;;;26.47;51.24;99183.41;4478302;32;34386;-62
2022/08/28 00:32:52;;;;;;;;;;;;;;;26.63;50.35;99179.22;4482427;32;34106;-63
2022/08/28 00:35:20;;;;;;;;;;;;;;;26.54;50.68;99186.94;4483650;32;33248;-63
2022/08/28 00:37:49;;;;;;;;;;;;;;;26.56;50.67;99181.22;4478655;32;32897;-62
2022/08/28 00:40:18;;;;;;;;;;;;;;;26.08;51.97;99176.53;4474337;32;34039;-63
2022/08/28 00:42:59;;;;;;;;;;;;;;;25.36;54.13;99182.53;4474499;32;34510;-62
2022/08/28 00:45:27;;;;;;;;;;;;;;;25.45;53.96;99167.47;4483341;32;33325;-62
2022/08/28 00:47:55;;;;;;;;;;;;;;;25.32;53.77;99170.31;4482347;32;34844;-63
2022/08/28 00:50:23;;;;;;;;;;;;;;;25.55;53.31;99167.81;4483732;32;34123;-63
2022/08/28 00:52:52;;;;;;;;;;;;;;;25.26;53.89;99165.75;4469650;32;33995;-62
2022/08/28 00:55:21;;;;;;;;;;;;;;;25.23;54.10;99157.97;4474536;32;33254;-62
2022/08/28 00:57:50;;;;;;;;;;;;;;;25.41;53.45;99148.97;4482983;32;33652;-63
2022/08/28 01:00:23;;;;;;;;;;;;;;;25.27;53.85;99143.62;4483450;32;34062;-62
2022/08/28 01:02:51;;;;;;;;;;;;;;;25.40;53.72;99142.66;4481331;32;34262;-62
2022/08/28 01:05:19;;;;;;;;;;;;;;;25.98;52.28;99147.75;4484241;32;33313;-62
2022/08/28 01:07:47;;;;;;;;;;;;;;;25.45;53.68;99147.44;4476652;32;33226;-62
2022/08/28 01:10:16;;;;;;;;;;;;;;;26.01;52.24;99144.56;4477034;32;34462;-62
2022/08/28 01:12:44;;;;;;;;;;;;;;;25.66;53.00;99135.25;4481334;32;34112;-62
2022/08/28 01:15:13;;;;;;;;;;;;;;;26.18;51.75;99135.69;4468892;32;33339;-62
2022/08/28 01:17:42;;;;;;;;;;;;;;;26.20;51.81;99145.38;4469818;32;32578;-62
2022/08/28 01:20:11;;;;;;;;;;;;;;;25.85;52.85;99145.16;4474810;32;34212;-62
2022/08/28 01:22:40;;;;;;;;;;;;;;;25.71;53.22;99152.66;4474801;32;34048;-62
2022/08/28 01:25:09;;;;;;;;;;;;;;;26.12;51.76;99162.13;4473211;32;33115;-62
2022/08/28 01:27:37;;;;;;;;;;;;;;;25.23;53.45;99169.78;4483204;32;32709;-62
2022/08/28 01:30:05;;;;;;;;;;;;;;;25.39;53.05;99170.25;4481239;32;35277;-62
2022/08/28 01:32:39;;;;;;;;;;;;;;;25.55;52.29;99175.16;4479274;32;34403;-62
2022/08/28 01:35:08;;;;;;;;;;;;;;;25.61;51.52;99177.00;4482836;32;32688;-63
2022/08/28 01:37:36;;;;;;;;;;;;;;;25.45;51.60;99178.41;4480401;32;33836;-62
2022/08/28 01:40:03;;;;;;;;;;;;;;;24.99;52.88;99173.31;4482061;32;34368;-61
2022/08/28 01:42:35;;;;;;;;;;;;;;;24.27;54.55;99180.84;4482781;32;33086;-61
2022/08/28 01:45:03;;;;;;;;;;;;;;;24.64;53.69;99181.97;4483231;32;32323;-62
2022/08/28 01:47:30;;;;;;;;;;;;;;;24.94;52.76;99173.13;4479084;32;33024;-62
2022/08/28 01:49:58;;;;;;;;;;;;;;;24.09;55.32;99176.09;4479314;32;35009;-62
2022/08/28 01:52:25;;;;;;;;;;;;;;;24.29;54.84;99176.00;4482580;32;34642;-61
2022/08/28 01:54:53;;;;;;;;;;;;;;;23.60;57.49;99174.75;4478702;32;33457;-62
2022/08/28 01:57:22;;;;;;;;;;;;;;;24.45;55.07;99171.97;4479539;32;34066;-62
2022/08/28 01:59:50;;;;;;;;;;;;;;;24.60;54.61;99175.25;4482893;32;34037;-62
2022/08/28 02:02:17;;;;;;;;;;;;;;;24.64;54.70;99173.75;4483484;32;33900;-63
2022/08/28 02:04:45;;;;;;;;;;;;;;;24.96;53.82;99154.59;4480342;32;33509;-62
2022/08/28 02:07:15;;;;;;;;;;;;;;;25.08;53.42;99148.19;4479922;32;34310;-62
2022/08/28 02:09:43;;;;;;;;;;;;;;;25.28;52.82;99144.47;4481848;32;35140;-62
2022/08/28 02:12:10;;;;;;;;;;;;;;;25.38;52.55;99141.19;4483076;32;35147;-61
2022/08/28 02:14:38;;;;;;;;;;;;;;;25.08;53.41;99130.91;4480915;32;33132;-62
2022/08/28 02:17:05;;;;;;;;;;;;;;;25.09;53.52;99135.31;4482846;32;32885;-62
2022/08/28 02:19:33;;;;;;;;;;;;;;;25.45;52.28;99140.06;4481801;32;34312;-61
2022/08/28 02:22:00;;;;;;;;;;;;;;;25.66;51.78;99138.81;4481049;32;34238;-62
2022/08/28 02:24:28;;;;;;;;;;;;;;;25.58;51.68;99133.63;4482779;32;32242;-62
2022/08/28 02:26:55;;;;;;;;;;;;;;;26.00;50.61;99120.09;4484760;32;32746;-62
2022/08/28 02:29:24;;;;;;;;;;;;;;;25.84;51.03;99126.19;4483578;32;34250;-62
2022/08/28 02:31:52;;;;;;;;;;;;;;;25.93;50.67;99122.09;4480821;32;33920;-61
2022/08/28 02:34:19;;;;;;;;;;;;;;;26.13;50.37;99122.69;4480099;32;32041;-62
2022/08/28 02:36:46;;;;;;;;;;;;;;;26.17;49.68;99125.81;4479574;32;33760;-62
2022/08/28 02:39:14;;;;;;;;;;;;;;;26.01;50.03;99127.25;4481500;32;34028;-62
2022/08/28 02:41:42;;;;;;;;;;;;;;;26.17;49.70;99121.16;4484266;32;33898;-62
2022/08/28 02:44:09;;;;;;;;;;;;;;;26.40;49.28;99125.06;4482791;32;31555;-62
2022/08/28 02:46:36;;;;;;;;;;;;;;;26.29;49.70;99125.84;4480944;32;35110;-61
2022/08/28 02:49:04;;;;;;;;;;;;;;;26.00;50.59;99140.16;4481313;32;34023;-62
2022/08/28 02:51:32;;;;;;;;;;;;;;;25.52;51.84;99160.03;4482519;32;34935;-61
2022/08/28 02:54:00;;;;;;;;;;;;;;;25.38;52.14;99169.44;4482963;32;33505;-62
2022/08/28 02:56:27;;;;;;;;;;;;;;;25.69;51.50;99167.66;4479300;32;34917;-61
2022/08/28 02:58:54;;;;;;;;;;;;;;;25.05;53.34;99156.00;4480165;32;32849;-62
2022/08/28 03:01:22;;;;;;;;;;;;;;;25.24;52.79;99148.72;4478998;32;33793;-61
2022/08/28 03:03:50;;;;;;;;;;;;;;;25.45;52.32;99153.75;4482622;32;32908;-62
2022/08/28 03:06:17;;;;;;;;;;;;;;;25.71;51.82;99151.81;4481787;32;33776;-62
2022/08/28 03:08:45;;;;;;;;;;;;;;;25.57;52.04;99167.56;4479095;32;33990;-61
2022/08/28 03:11:12;;;;;;;;;;;;;;;25.48;52.79;99168.91;4475654;32;34650;-61
2022/08/28 03:13:41;;;;;;;;;;;;;;;25.66;52.26;99166.22;4485004;32;34312;-62
2022/08/28 03:16:08;;;;;;;;;;;;;;;25.13;53.72;99158.47;4483158;32;35301;-61
2022/08/28 03:18:36;;;;;;;;;;;;;;;24.91;54.56;99163.47;4483175;32;33988;-60
2022/08/28 03:21:03;;;;;;;;;;;;;;;24.54;55.51;99156.97;4476580;32;33940;-62
2022/08/28 03:23:30;;;;;;;;;;;;;;;25.08;54.10;99158.28;4481148;32;33351;-62
2022/08/28 03:26:03;;;;;;;;;;;;;;;25.18;53.93;99161.41;4485028;32;35065;-62
2022/08/28 03:28:37;;;;;;;;;;;;;;;25.25;53.95;99151.22;4473556;32;32984;-62
2022/08/28 03:31:05;;;;;;;;;;;;;;;25.44;53.00;99154.84;4479236;32;33890;-62
2022/08/28 03:33:32;;;;;;;;;;;;;;;25.37;53.18;99154.06;4479116;32;33203;-62
2022/08/28 03:36:00;;;;;;;;;;;;;;;25.22;53.14;99148.09;4481080;32;32805;-62
2022/08/28 03:38:31;;;;;;;;;;;;;;;25.50;52.21;99153.09;4484265;32;34379;-62
2022/08/28 03:40:58;;;;;;;;;;;;;;;25.53;51.85;99149.91;4473453;32;34172;-62
2022/08/28 03:43:26;;;;;;;;;;;;;;;25.60;51.63;99153.41;4470607;31;32007;-62
2022/08/28 03:45:57;;;;;;;;;;;;;;;25.38;51.71;99147.50;4476404;32;35522;-62
2022/08/28 03:48:26;;;;;;;;;;;;;;;24.84;52.76;99147.09;4480787;31;34723;-62
2022/08/28 03:50:54;;;;;;;;;;;;;;;24.79;52.61;99140.63;4479203;32;34279;-62
2022/08/28 03:53:22;;;;;;;;;;;;;;;24.81;52.58;99138.47;4470036;31;32726;-62
2022/08/28 03:55:50;;;;;;;;;;;;;;;25.28;51.12;99134.34;4478684;32;34220;-62
2022/08/28 03:58:18;;;;;;;;;;;;;;;25.50;50.70;99137.50;4470142;32;35346;-62
2022/08/28 04:00:45;;;;;;;;;;;;;;;26.04;49.44;99134.19;4479387;32;33028;-62
2022/08/28 04:03:13;;;;;;;;;;;;;;;26.22;48.90;99128.66;4482312;32;34178;-62
2022/08/28 04:05:44;;;;;;;;;;;;;;;26.34;48.48;99132.31;4469793;32;33819;-61
2022/08/28 04:08:14;;;;;;;;;;;;;;;26.40;48.21;99130.56;4476465;32;34271;-62
2022/08/28 04:10:42;;;;;;;;;;;;;;;26.16;48.98;99130.44;4476132;31;32816;-62
2022/08/28 04:13:10;;;;;;;;;;;;;;;26.27;48.65;99128.00;4480662;32;33530;-62
2022/08/28 04:15:38;;;;;;;;;;;;;;;26.21;48.84;99132.50;4479843;31;33753;-62
2022/08/28 04:18:06;;;;;;;;;;;;;;;26.25;48.77;99129.03;4474922;32;34294;-62
2022/08/28 04:20:33;;;;;;;;;;;;;;;26.38;48.56;99124.44;4481184;31;35184;-62
2022/08/28 04:23:02;;;;;;;;;;;;;;;26.36;48.77;99121.12;4480243;32;32363;-62
2022/08/28 04:25:30;;;;;;;;;;;;;;;26.40;48.70;99131.38;4478871;32;34333;-62
2022/08/28 04:27:57;;;;;;;;;;;;;;;26.24;49.02;99135.59;4481200;31;34237;-62
2022/08/28 04:30:25;;;;;;;;;;;;;;;26.24;49.06;99134.78;4470691;32;33846;-62
2022/08/28 04:32:52;;;;;;;;;;;;;;;26.14;49.56;99137.22;4468797;32;33153;-62
2022/08/28 04:35:19;;;;;;;;;;;;;;;26.08;49.70;99146.38;4481692;32;34037;-62
2022/08/28 04:37:47;;;;;;;;;;;;;;;25.76;50.45;99141.84;4466207;32;34244;-62
2022/08/28 04:40:14;;;;;;;;;;;;;;;25.85;50.32;99147.91;4477721;32;34305;-61
2022/08/28 04:42:43;;;;;;;;;;;;;;;25.57;50.78;99148.37;4469881;32;31693;-61
2022/08/28 04:45:12;;;;;;;;;;;;;;;25.86;50.09;99149.56;4471448;32;34123;-61
2022/08/28 04:47:39;;;;;;;;;;;;;;;25.84;50.15;99151.69;4482320;31;34242;-62
2022/08/28 04:50:07;;;;;;;;;;;;;;;25.89;49.82;99154.59;4478619;32;33256;-61
2022/08/28 04:52:34;;;;;;;;;;;;;;;25.52;51.25;99164.66;4477342;32;33488;-61
2022/08/28 04:55:03;;;;;;;;;;;;;;;25.63;50.49;99161.19;4476990;31;34270;-62
2022/08/28 04:57:30;;;;;;;;;;;;;;;25.87;50.15;99158.62;4478289;32;34986;-62
2022/08/28 05:00:03;;;;;;;;;;;;;;;26.31;48.80;99160.19;4479623;31;34039;-62
2022/08/28 05:02:31;;;;;;;;;;;;;;;26.40;48.64;99161.56;4475504;32;33173;-62
2022/08/28 05:04:58;;;;;;;;;;;;;;;26.47;48.45;99175.19;4477428;31;35172;-62
2022/08/28 05:07:26;;;;;;;;;;;;;;;26.61;48.44;99165.75;4480237;32;34259;-62
2022/08/28 05:09:53;;;;;;;;;;;;;;;27.29;46.83;99175.50;4477420;31;35111;-62
2022/08/28 05:12:21;;;;;;;;;;;;;;;28.03;44.68;99181.34;4476613;32;33072;-62
2022/08/28 05:14:48;;;;;;;;;;;;;;;27.99;44.93;99182.06;4477513;31;34124;-61
2022/08/28 05:17:15;;;;;;;;;;;;;;;28.05;44.83;99184.66;4476294;32;34082;-62
2022/08/28 05:19:43;;;;;;;;;;;;;;;28.10;45.16;99181.22;4479960;32;33994;-62
2022/08/28 05:22:10;;;;;;;;;;;;;;;28.24;44.58;99179.00;4478373;31;33445;-62
2022/08/28 05:24:38;;;;;;;;;;;;;;;28.45;44.33;99164.63;4473187;32;35187;-62
2022/08/28 05:27:06;;;;;;;;;;;;;;;28.50;44.05;99169.38;4470590;32;33727;-62
2022/08/28 05:29:33;;;;;;;;;;;;;;;28.38;44.42;99158.41;4480717;32;33258;-62
2022/08/28 05:32:01;;;;;;;;;;;;;;;28.32;44.65;99156.63;4480073;31;33271;-63
2022/08/28 05:34:28;;;;;;;;;;;;;;;28.84;43.11;99156.53;4478079;32;35338;-64
2022/08/28 05:36:56;;;;;;;;;;;;;;;28.81;43.02;99168.03;4479093;31;34338;-63
2022/08/28 05:39:24;;;;;;;;;;;;;;;28.94;43.01;99161.38;4480509;32;34931;-63
2022/08/28 05:41:51;;;;;;;;;;;;;;;29.19;42.77;99155.50;4478524;31;34379;-65
2022/08/28 05:44:19;;;;;;;;;;;;;;;29.83;41.52;99155.97;4478740;32;34102;-63
2022/08/28 05:46:47;;;;;;;;;;;;;;;30.16;40.45;99145.88;4479382;32;33110;-63
2022/08/28 05:49:16;;;;;;;;;;;;;;;30.37;40.41;99161.66;4477397;31;33011;-62
2022/08/28 05:51:44;;;;;;;;;;;;;;;30.75;38.65;99154.28;4480432;32;34366;-62
2022/08/28 05:54:11;;;;;;;;;;;;;;;30.80;38.63;99159.09;4471983;31;34573;-62
2022/08/28 05:56:39;;;;;;;;;;;;;;;30.62;39.29;99165.75;4470385;32;35429;-62
2022/08/28 05:59:07;;;;;;;;;;;;;;;30.29;40.37;99167.59;4470824;31;32878;-63
2022/08/28 06:01:36;;;;;;;;;;;;;;;29.96;40.21;99164.97;4471217;32;32539;-62
2022/08/28 06:04:08;;;;;;;;;;;;;;;29.61;41.17;99166.94;4460964;32;32476;-63
2022/08/28 06:06:38;;;;;;;;;;;;;;;29.68;41.50;99164.00;4474265;32;33559;-63
2022/08/28 06:09:07;;;;;;;;;;;;;;;29.16;42.34;99161.53;4471190;31;35224;-63
2022/08/28 06:11:34;;;;;;;;;;;;;;;28.91;42.72;99176.47;4462758;32;32755;-63
2022/08/28 06:14:02;;;;;;;;;;;;;;;28.45;43.07;99169.28;4470062;32;33941;-62
2022/08/28 06:16:30;;;;;;;;;;;;;;;28.67;42.72;99172.16;4470773;32;33842;-62
2022/08/28 06:18:59;;;;;;;;;;;;;;;28.87;43.06;99174.50;4470769;32;32899;-62
2022/08/28 06:21:27;;;;;;;;;;;;;;;28.68;42.82;99179.38;4470598;31;31508;-62
2022/08/28 06:23:54;;;;;;;;;;;;;;;28.59;42.66;99184.41;4472566;32;36400;-62
2022/08/28 06:26:22;;;;;;;;;;;;;;;28.68;42.61;99184.87;4469062;31;33480;-62
2022/08/28 06:28:51;;;;;;;;;;;;;;;28.34;43.41;99184.72;4471379;32;34389;-62
2022/08/28 06:31:19;;;;;;;;;;;;;;;28.56;42.96;99187.66;4467862;32;33691;-62
2022/08/28 06:33:52;;;;;;;;;;;;;;;28.52;42.97;99195.59;4470804;32;32402;-62
2022/08/28 06:36:21;;;;;;;;;;;;;;;28.26;43.75;99196.13;4467269;31;34255;-63
2022/08/28 06:38:48;;;;;;;;;;;;;;;28.07;44.19;99196.28;4473159;32;34086;-62
2022/08/28 06:41:18;;;;;;;;;;;;;;;28.34;43.05;99201.22;4469220;31;34504;-63
2022/08/28 06:43:46;;;;;;;;;;;;;;;28.57;42.67;99197.59;4468958;32;33202;-62
2022/08/28 06:46:13;;;;;;;;;;;;;;;28.62;42.79;99202.38;4471590;32;33627;-63
2022/08/28 06:48:41;;;;;;;;;;;;;;;28.83;42.08;99192.56;4473795;31;33896;-62
2022/08/28 06:51:10;;;;;;;;;;;;;;;28.95;42.38;99194.19;4470740;32;33265;-63
2022/08/28 06:53:38;;;;;;;;;;;;;;;29.11;42.74;99205.50;4470496;31;34385;-63
2022/08/28 06:56:10;;;;;;;;;;;;;;;29.30;42.16;99204.19;4470045;32;32897;-63
2022/08/28 06:58:40;;;;;;;;;;;;;;;29.43;41.80;99208.53;4472673;31;32718;-63
2022/08/28 07:01:11;;;;;;;;;;;;;;;29.48;41.27;99212.22;4468437;31;33262;-63
2022/08/28 07:03:40;;;;;;;;;;;;;;;29.23;41.41;99217.28;4473519;31;35283;-63
2022/08/28 07:06:11;;;;;;;;;;;;;;;29.42;40.63;99224.25;4468603;32;36459;-63
2022/08/28 07:08:39;;;;;;;;;;;;;;;29.53;40.35;99221.63;4466805;31;32736;-63
2022/08/28 07:11:12;;;;;;;;;;;;;;;29.59;40.12;99226.16;4471426;32;32729;-62
2022/08/28 07:13:40;;;;;;;;;;;;;;;29.60;40.56;99217.69;4469805;32;33812;-62
2022/08/28 07:16:08;;;;;;;;;;;;;;;29.69;40.55;99218.88;4471799;32;34033;-62
2022/08/28 07:18:36;;;;;;;;;;;;;;;29.74;40.41;99223.66;4472887;32;32660;-63
2022/08/28 07:21:03;;;;;;;;;;;;;;;29.26;41.69;99225.06;4473709;31;33657;-63
2022/08/28 07:23:35;;;;;;;;;;;;;;;29.34;42.97;99221.03;4475496;31;35330;-63
2022/08/28 07:26:07;;;;;;;;;;;;;;;29.36;44.18;99229.91;4470047;31;34600;-63
2022/08/28 07:28:34;;;;;;;;;;;;;;;29.48;44.76;99237.03;4467875;31;32611;-63
2022/08/28 07:31:04;;;;;;;;;;;;;;;28.89;46.13;99236.50;4467400;31;32134;-63
2022/08/28 07:33:31;;;;;;;;;;;;;;;29.16;46.13;99241.44;4472690;32;32928;-63
2022/08/28 07:35:59;;;;;;;;;;;;;;;29.20;45.81;99248.09;4471755;32;34427;-63
2022/08/28 07:38:26;;;;;;;;;;;;;;;29.32;45.71;99240.59;4471649;32;32405;-63
2022/08/28 07:40:54;;;;;;;;;;;;;;;29.29;46.22;99238.34;4470639;32;33465;-62
2022/08/28 07:46:10;;;;;;;;;;;;;;;29.15;46.60;99242.50;4479040;32;35400;-63
2022/08/28 07:48:38;;;;;;;;;;;;;;;29.36;45.62;99241.78;4481018;31;34296;-63
2022/08/28 07:51:06;;;;;;;;;;;;;;;29.56;45.10;99235.75;4474881;32;33504;-62
2022/08/28 07:53:34;;;;;;;;;;;;;;;28.98;45.81;99240.50;4465765;32;33790;-63
2022/08/28 07:56:03;;;;;;;;;;;;;;;29.18;45.46;99237.34;4474749;32;32747;-63
2022/08/28 07:58:31;;;;;;;;;;;;;;;29.12;45.50;99243.84;4468553;32;34075;-63
2022/08/28 08:01:00;;;;;;;;;;;;;;;29.59;44.19;99243.53;4471894;32;31915;-63
2022/08/28 08:03:28;;;;;;;;;;;;;;;29.86;43.98;99257.50;4471642;32;34142;-63
2022/08/28 08:05:56;;;;;;;;;;;;;;;29.68;44.07;99264.13;4478514;32;35093;-62
2022/08/28 08:08:24;;;;;;;;;;;;;;;29.71;43.82;99260.84;4473605;32;35309;-63
2022/08/28 08:11:11;;;;;;;;;;;;;;;29.65;43.83;99252.75;4474284;32;33067;-63
2022/08/28 08:13:44;;;;;;;;;;;;;;;29.71;43.18;99260.03;4476490;32;34269;-63
2022/08/28 08:16:13;;;;;;;;;;;;;;;29.01;45.22;99256.56;4477702;32;35482;-63
2022/08/28 08:18:40;;;;;;;;;;;;;;;29.30;44.45;99259.31;4472765;31;34171;-63
2022/08/28 08:21:10;;;;;;;;;;;;;;;29.65;43.68;99258.28;4464749;32;32194;-63
2022/08/28 08:23:38;;;;;;;;;;;;;;;29.91;43.05;99262.25;4468253;32;34114;-62
2022/08/28 08:26:06;;;;;;;;;;;;;;;29.71;43.32;99258.09;4468261;32;35447;-63
2022/08/28 08:28:35;;;;;;;;;;;;;;;29.63;44.44;99264.06;4469580;32;34126;-63
2022/08/28 08:31:03;;;;;;;;;;;;;;;29.74;44.27;99265.03;4471405;32;33203;-62
2022/08/28 08:33:31;;;;;;;;;;;;;;;29.73;42.71;99265.28;4470411;32;34206;-63
2022/08/28 08:35:59;;;;;;;;;;;;;;;29.82;41.76;99270.13;4470507;32;32650;-63
2022/08/28 08:38:30;;;;;;;;;;;;;;;29.43;43.73;99270.00;4472980;32;35133;-63
2022/08/28 08:40:58;;;;;;;;;;;;;;;29.52;43.36;99278.72;4473680;32;34449;-63
2022/08/28 08:43:26;;;;;;;;;;;;;;;29.43;42.89;99272.75;4463511;32;34556;-63
2022/08/28 08:45:53;;;;;;;;;;;;;;;29.93;42.29;99265.59;4466760;32;35382;-63
2022/08/28 08:48:27;;;;;;;;;;;;;;;30.25;41.67;99263.06;4471349;32;34068;-63
2022/08/28 08:50:56;;;;;;;;;;;;;;;29.59;43.19;99264.75;4471994;32;31823;-63
2022/08/28 08:53:30;;;;;;;;;;;;;;;29.84;43.23;99267.13;4454329;32;32345;-63
2022/08/28 08:55:58;;;;;;;;;;;;;;;30.08;42.67;99264.97;4479703;32;33054;-63
2022/08/28 08:58:26;;;;;;;;;;;;;;;30.46;42.20;99266.91;4470860;32;34101;-63
2022/08/28 09:00:56;;;;;;;;;;;;;;;30.31;40.88;99267.56;4472897;32;34085;-63
2022/08/28 09:03:59;;;;;;;;;;;;;;;30.30;40.81;99265.88;4475534;32;35079;-63
2022/08/28 09:06:59;;;;;;;;;;;;;;;30.69;40.78;99265.84;4421881;32;35009;-63
2022/08/28 09:09:26;;;;;;;;;;;;;;;30.88;40.60;99277.41;4445951;32;32772;-63
2022/08/28 09:11:54;;;;;;;;;;;;;;;30.51;40.69;99268.94;4472636;32;33414;-63
2022/08/28 09:14:31;;;;;;;;;;;;;;;30.23;40.69;99278.19;4471097;32;34254;-64
2022/08/28 09:16:58;;;;;;;;;;;;;;;30.51;40.14;99278.03;4467363;32;33859;-63
2022/08/28 09:19:26;;;;;;;;;;;;;;;30.75;39.22;99275.00;4472709;32;35150;-63
2022/08/28 09:21:53;;;;;;;;;;;;;;;30.56;39.69;99275.34;4470960;32;34421;-62
2022/08/28 09:24:28;;;;;;;;;;;;;;;30.49;38.72;99277.44;4463567;32;32018;-63
2022/08/28 09:26:57;;;;;;;;;;;;;;;30.69;37.43;99276.03;4477246;32;34122;-63
2022/08/28 09:29:27;;;;;;;;;;;;;;;30.67;37.89;99275.47;4476897;32;32955;-63
2022/08/28 09:31:54;;;;;;;;;;;;;;;31.22;36.66;99286.34;4469729;32;32663;-63
2022/08/28 09:34:22;;;;;;;;;;;;;;;31.49;36.90;99291.03;4473644;32;33411;-63
2022/08/28 09:36:51;;;;;;;;;;;;;;;31.55;36.82;99288.06;4471145;32;33708;-63
2022/08/28 09:39:23;;;;;;;;;;;;;;;31.65;36.64;99290.06;4473476;32;34308;-63
2022/08/28 09:44:46;;;;;;;;;;;;;;;31.20;38.05;99291.28;4467113;32;34287;-63
2022/08/28 09:47:38;;;;;;;;;;;;;;;31.16;38.18;99284.63;4473429;32;35272;-63
2022/08/28 09:50:28;;;;;;;;;;;;;;;31.45;37.09;99287.13;4472574;32;35183;-63
2022/08/28 09:52:57;;;;;;;;;;;;;;;31.28;38.32;99290.00;4473340;32;33418;-63
2022/08/28 09:55:43;;;;;;;;;;;;;;;31.54;37.06;99280.03;4472714;32;35922;-63
2022/08/28 09:58:11;;;;;;;;;;;;;;;31.46;37.03;99277.75;4471418;32;35509;-63
2022/08/28 10:00:42;;;;;;;;;;;;;;;31.44;37.19;99280.78;4469598;32;32387;-63
2022/08/28 10:03:13;;;;;;;;;;;;;;;31.72;36.26;99276.87;4467884;32;34041;-63
2022/08/28 10:05:44;;;;;;;;;;;;;;;32.36;34.37;99284.25;4463892;32;32981;-63
2022/08/28 10:08:21;;;;;;;;;;;;;;;32.01;35.21;99285.69;4471560;32;34383;-63
2022/08/28 10:10:52;;;;;;;;;;;;;;;32.39;34.34;99280.94;4471979;32;34071;-63
2022/08/28 10:13:30;;;;;;;;;;;;;;;32.19;35.24;99278.88;4481131;32;33490;-63
2022/08/28 10:16:10;;;;;;;;;;;;;;;32.71;33.80;99274.44;4476977;32;35127;-63
2022/08/28 10:18:42;;;;;;;;;;;;;;;32.57;34.32;99279.66;4481666;32;35080;-63
2022/08/28 10:21:21;;;;;;;;;;;;;;;32.59;33.34;99279.41;4476802;32;34117;-63
2022/08/28 10:24:07;;;;;;;;;;;;;;;32.78;32.92;99263.09;4483686;32;34345;-63
2022/08/28 10:26:41;;;;;;;;;;;;;;;33.01;32.03;99267.38;4477909;32;33034;-63
2022/08/28 10:29:11;;;;;;;;;;;;;;;33.27;31.97;99274.63;4478526;32;33720;-63
2022/08/28 10:31:44;;;;;;;;;;;;;;;33.30;32.63;99260.22;4477196;32;35401;-63
2022/08/28 10:34:25;;;;;;;;;;;;;;;33.28;32.66;99267.13;4485909;32;34489;-63
2022/08/28 10:37:03;;;;;;;;;;;;;;;33.70;31.83;99261.34;4468572;32;34335;-63
2022/08/28 10:39:38;;;;;;;;;;;;;;;33.09;32.19;99264.88;4466744;32;36567;-62
2022/08/28 10:42:06;;;;;;;;;;;;;;;33.00;33.46;99260.16;4472385;32;33360;-63
2022/08/28 10:44:38;;;;;;;;;;;;;;;33.66;31.81;99263.03;4469919;32;33686;-63
2022/08/28 10:47:06;;;;;;;;;;;;;;;33.99;32.09;99249.66;4471474;32;32497;-63
2022/08/28 10:49:34;;;;;;;;;;;;;;;33.86;30.88;99249.13;4473218;32;34982;-63
2022/08/28 10:52:04;;;;;;;;;;;;;;;33.43;32.04;99253.28;4459698;32;33551;-63
2022/08/28 10:54:40;;;;;;;;;;;;;;;33.68;31.65;99249.72;4483949;32;33423;-63
2022/08/28 10:57:23;;;;;;;;;;;;;;;33.97;31.08;99254.69;4480560;32;33288;-63
2022/08/28 10:59:51;;;;;;;;;;;;;;;33.64;31.89;99254.13;4474654;32;33443;-63
2022/08/28 11:02:21;;;;;;;;;;;;;;;34.06;31.85;99251.06;4473485;32;35206;-63
2022/08/28 11:04:48;;;;;;;;;;;;;;;34.28;30.91;99245.16;4479086;32;32020;-63
2022/08/28 11:07:20;;;;;;;;;;;;;;;34.45;30.50;99250.41;4469282;32;33703;-63
2022/08/28 11:09:47;;;;;;;;;;;;;;;34.57;28.85;99254.81;4468218;32;33083;-63
2022/08/28 11:12:15;;;;;;;;;;;;;;;34.26;30.23;99247.41;4478347;32;32910;-63
2022/08/28 11:14:46;;;;;;;;;;;;;;;34.38;30.32;99249.84;4482955;32;34383;-63
2022/08/28 11:17:21;;;;;;;;;;;;;;;34.14;29.68;99251.59;4481712;32;35017;-63
2022/08/28 11:19:58;;;;;;;;;;;;;;;34.18;30.20;99252.69;4478460;32;33742;-63
2022/08/28 11:22:25;;;;;;;;;;;;;;;34.07;30.16;99249.94;4478024;32;33054;-63
2022/08/28 11:24:55;;;;;;;;;;;;;;;33.76;30.70;99257.47;4482918;32;33257;-63
2022/08/28 11:27:32;;;;;;;;;;;;;;;33.80;31.06;99253.00;4479507;32;34130;-63
2022/08/28 11:30:09;;;;;;;;;;;;;;;34.31;30.46;99252.09;4470861;32;34430;-63
2022/08/28 11:32:39;;;;;;;;;;;;;;;34.36;29.92;99246.53;4479323;32;34459;-63
2022/08/28 11:35:19;;;;;;;;;;;;;;;34.46;29.89;99252.03;4470037;32;34254;-63
2022/08/28 11:37:47;;;;;;;;;;;;;;;34.24;30.45;99246.84;4478851;32;33791;-63
2022/08/28 11:40:16;;;;;;;;;;;;;;;33.72;30.20;99253.59;4473015;32;33919;-64
2022/08/28 11:42:47;;;;;;;;;;;;;;;34.18;28.87;99242.41;4477826;32;34233;-62
2022/08/28 11:45:19;;;;;;;;;;;;;;;33.96;28.95;99241.88;4481287;32;32133;-61
2022/08/28 11:47:55;;;;;;;;;;;;;;;33.97;29.81;99251.91;4466712;32;34094;-64
2022/08/28 11:50:25;;;;;;;;;;;;;;;33.83;29.72;99246.91;4473122;32;34436;-63
2022/08/28 11:53:16;;;;;;;;;;;;;;;33.87;29.36;99244.41;4466933;32;33054;-63
2022/08/28 11:55:45;;;;;;;;;;;;;;;34.49;28.90;99240.38;4448627;31;34347;-64
2022/08/28 11:58:13;;;;;;;;;;;;;;;34.31;29.12;99232.66;4478003;32;33957;-62
2022/08/28 12:00:48;;;;;;;;;;;;;;;34.54;29.35;99234.84;4467144;32;32869;-62
2022/08/28 12:03:35;;;;;;;;;;;;;;;34.17;30.20;99231.59;4468496;32;34520;-61
2022/08/28 12:06:04;;;;;;;;;;;;;;;34.62;30.51;99238.94;4474616;32;32942;-61
2022/08/28 12:08:45;;;;;;;;;;;;;;;34.12;30.91;99232.44;4469988;32;32860;-64
2022/08/28 12:11:31;;;;;;;;;;;;;;;33.55;31.91;99233.63;4479125;32;35202;-64
2022/08/28 12:13:59;;;;;;;;;;;;;;;33.67;31.55;99225.81;4477618;32;34496;-64
2022/08/28 12:16:26;;;;;;;;;;;;;;;33.39;29.99;99235.53;4482603;32;33680;-65
2022/08/28 12:18:54;;;;;;;;;;;;;;;33.26;29.96;99230.50;4473011;32;34249;-63
2022/08/28 12:21:22;;;;;;;;;;;;;;;33.32;30.54;99229.41;4484799;32;34343;-64
2022/08/28 12:23:55;;;;;;;;;;;;;;;33.65;29.98;99227.25;4458006;32;33951;-64
2022/08/28 12:26:25;;;;;;;;;;;;;;;33.11;32.15;99229.41;4478075;32;33357;-64
2022/08/28 12:28:59;;;;;;;;;;;;;;;33.13;32.26;99231.87;4480564;32;34454;-64
2022/08/28 12:32:10;;;;;;;;;;;;;;;33.32;31.16;99233.03;4482874;32;35388;-64
2022/08/28 12:34:23;;;;;;;;;;;;;;;33.04;32.56;99225.25;4480370;32;32890;-64
2022/08/28 12:36:58;;;;;;;;;;;;;;;33.02;32.85;99228.28;4464180;32;33177;-64
2022/08/28 12:39:25;;;;;;;;;;;;;;;33.15;33.35;99222.19;4471421;32;32980;-64
2022/08/28 12:41:53;;;;;;;;;;;;;;;33.46;33.14;99222.22;4481993;32;34413;-64
2022/08/28 12:44:27;;;;;;;;;;;;;;;33.38;32.42;99218.03;4483329;32;35286;-64
2022/08/28 12:46:55;;;;;;;;;;;;;;;33.38;34.07;99220.81;4472358;32;33273;-63
2022/08/28 12:49:26;;;;;;;;;;;;;;;32.92;35.53;99220.75;4477831;32;34053;-63
2022/08/28 12:52:11;;;;;;;;;;;;;;;32.94;35.59;99214.94;4478200;32;34011;-63
2022/08/28 12:54:44;;;;;;;;;;;;;;;32.94;35.71;99214.94;4472388;32;32456;-63
2022/08/28 12:57:12;;;;;;;;;;;;;;;32.96;35.31;99211.88;4469880;32;32917;-63
2022/08/28 12:59:41;;;;;;;;;;;;;;;32.09;37.08;99220.69;4463461;32;33517;-64
2022/08/28 13:02:12;;;;;;;;;;;;;;;32.48;37.05;99215.63;4480921;32;35288;-64
2022/08/28 13:04:41;;;;;;;;;;;;;;;32.44;34.76;99216.44;4459450;32;34442;-64
2022/08/28 13:07:12;;;;;;;;;;;;;;;32.68;35.75;99209.34;4474554;32;32182;-65